createdAt,value
2018-06-19T00:00:37.299Z,77.59
2018-06-19T00:01:17.827Z,77.88
2018-06-19T00:01:58.362Z,77.88
2018-06-19T00:02:38.878Z,77.4
2018-06-19T00:03:19.385Z,77.11
2018-06-19T00:03:59.903Z,77.21
2018-06-19T00:04:40.428Z,77.3
2018-06-19T00:05:20.962Z,77.69
2018-06-19T00:06:01.478Z,76.43
2018-06-19T00:06:42.012Z,77.17
2018-06-19T00:07:22.541Z,77.59
2018-06-19T00:08:03.075Z,78.27
2018-06-19T00:08:43.585Z,78.33
2018-06-19T00:09:24.102Z,78.42
2018-06-19T00:10:04.620Z,78.08
2018-06-19T00:10:45.142Z,77.98
2018-06-19T00:11:25.676Z,78.08
2018-06-19T00:12:06.202Z,78.08
2018-06-19T00:12:46.729Z,78.13
2018-06-19T00:13:27.259Z,78.91
2018-06-19T00:14:07.786Z,78.66
2018-06-19T00:14:48.319Z,78.42
2018-06-19T00:15:28.831Z,78.91
2018-06-19T00:16:09.356Z,78.71
2018-06-19T00:16:49.877Z,78.33
2018-06-19T00:17:30.397Z,78.52
2018-06-19T00:18:10.916Z,79
2018-06-19T00:18:51.449Z,78.91
2018-06-19T00:19:31.967Z,78.81
2018-06-19T00:20:12.536Z,78.71
2018-06-19T00:20:53.053Z,79.1
2018-06-19T00:21:33.585Z,78.61
2018-06-19T00:22:14.127Z,78.23
2018-06-19T00:22:54.663Z,78.71
2018-06-19T00:23:35.182Z,79
2018-06-19T00:24:15.704Z,78.71
2018-06-19T00:24:56.220Z,78.81
2018-06-19T00:25:36.764Z,78.42
2018-06-19T00:26:17.283Z,78.91
2018-06-19T00:26:57.820Z,79.29
2018-06-19T00:27:38.344Z,79
2018-06-19T00:28:18.857Z,78.81
2018-06-19T00:28:59.372Z,79
2018-06-19T00:29:39.909Z,78.67
2018-06-19T00:30:20.425Z,79.06
2018-06-19T00:31:00.959Z,78.91
2018-06-19T00:31:41.467Z,79.1
2018-06-19T00:32:21.988Z,78.86
2018-06-19T00:33:02.505Z,79.44
2018-06-19T00:33:43.023Z,78.81
2018-06-19T00:34:23.534Z,78.86
2018-06-19T00:35:04.054Z,79.25
2018-06-19T00:35:44.571Z,78.77
2018-06-19T00:36:25.090Z,79.25
2018-06-19T00:37:05.620Z,79.25
2018-06-19T00:37:46.143Z,79.16
2018-06-19T00:38:26.652Z,79.06
2018-06-19T00:39:07.193Z,79.16
2018-06-19T00:39:47.700Z,79.16
2018-06-19T00:40:28.226Z,79.25
2018-06-19T00:41:08.758Z,78.96
2018-06-19T00:41:49.286Z,79.06
2018-06-19T00:42:29.801Z,79.83
2018-06-19T00:43:10.331Z,79.25
2018-06-19T00:43:50.844Z,79.87
2018-06-19T00:44:31.368Z,79.83
2018-06-19T00:45:11.884Z,79.87
2018-06-19T00:45:52.413Z,79.19
2018-06-19T00:46:32.919Z,79.19
2018-06-19T00:47:13.463Z,78.91
2018-06-19T00:47:53.991Z,79.19
2018-06-19T00:48:34.502Z,79.25
2018-06-19T00:49:15.051Z,79.29
2018-06-19T00:49:55.566Z,79.25
2018-06-19T00:50:36.089Z,79.83
2018-06-19T00:51:16.602Z,79.64
2018-06-19T00:51:57.132Z,79.64
2018-06-19T00:52:37.643Z,79.93
2018-06-19T00:53:18.190Z,79.74
2018-06-19T00:53:58.718Z,79.93
2018-06-19T00:54:39.247Z,79.64
2018-06-19T00:55:19.762Z,79.83
2018-06-19T00:56:00.288Z,80.35
2018-06-19T00:56:40.808Z,79.83
2018-06-19T00:57:21.325Z,79.87
2018-06-19T00:58:01.846Z,79.87
2018-06-19T00:58:42.371Z,79.29
2018-06-19T00:59:22.892Z,79.1
2018-06-19T01:00:03.411Z,79.74
2018-06-19T01:00:43.936Z,80.02
2018-06-19T01:01:24.452Z,79.83
2018-06-19T01:02:04.968Z,79.93
2018-06-19T01:02:45.479Z,80.69
2018-06-19T01:03:26.002Z,79.64
2018-06-19T01:04:06.516Z,79.93
2018-06-19T01:04:47.034Z,80.02
2018-06-19T01:05:27.555Z,80.12
2018-06-19T01:06:08.101Z,80.02
2018-06-19T01:06:48.614Z,80.02
2018-06-19T01:07:29.166Z,80.41
2018-06-19T01:08:09.693Z,80.22
2018-06-19T01:08:50.208Z,80.6
2018-06-19T01:09:30.744Z,80.89
2018-06-19T01:10:11.245Z,80.12
2018-06-19T01:10:51.768Z,80.31
2018-06-19T01:11:32.303Z,80.22
2018-06-19T01:12:12.824Z,80.12
2018-06-19T01:12:53.346Z,79.83
2018-06-19T01:13:33.869Z,80.22
2018-06-19T01:14:14.389Z,80.12
2018-06-19T01:14:54.912Z,80.89
2018-06-19T01:15:35.433Z,80.69
2018-06-19T01:16:15.958Z,80.6
2018-06-19T01:16:56.483Z,81.09
2018-06-19T01:17:37.006Z,81.27
2018-06-19T01:18:17.522Z,81.24
2018-06-19T01:18:58.040Z,81.14
2018-06-19T01:19:38.552Z,81.52
2018-06-19T01:20:19.072Z,81.18
2018-06-19T01:20:59.591Z,81.27
2018-06-19T01:21:40.125Z,81.24
2018-06-19T01:22:20.641Z,81.76
2018-06-19T01:23:01.166Z,81.27
2018-06-19T01:23:41.692Z,81.27
2018-06-19T01:24:22.218Z,81.47
2018-06-19T01:25:02.738Z,81.27
2018-06-19T01:25:43.264Z,81.27
2018-06-19T01:26:23.790Z,81.72
2018-06-19T01:27:04.320Z,81.33
2018-06-19T01:27:44.837Z,81.18
2018-06-19T01:28:25.361Z,81.57
2018-06-19T01:29:05.883Z,81.18
2018-06-19T01:29:46.401Z,81.09
2018-06-19T01:30:26.922Z,81.33
2018-06-19T01:31:07.439Z,81.24
2018-06-19T01:31:47.954Z,81.09
2018-06-19T01:32:28.485Z,81.57
2018-06-19T01:33:09.005Z,81.24
2018-06-19T01:33:50.358Z,81.09
2018-06-19T01:34:30.063Z,81.18
2018-06-19T01:35:10.593Z,81.27
2018-06-19T01:35:51.119Z,80.94
2018-06-19T01:36:31.645Z,81.09
2018-06-19T01:37:12.164Z,81.18
2018-06-19T01:37:52.693Z,81.18
2018-06-19T01:38:33.200Z,81.27
2018-06-19T01:39:13.725Z,80.69
2018-06-19T01:39:54.243Z,80.6
2018-06-19T01:40:34.788Z,81.18
2018-06-19T01:41:15.319Z,80.66
2018-06-19T01:41:55.842Z,81.09
2018-06-19T01:42:36.349Z,81.57
2018-06-19T01:44:24.341Z,81.57
2018-06-19T01:45:04.860Z,81.27
2018-06-19T01:45:45.378Z,80.99
2018-06-19T01:46:25.897Z,81.27
2018-06-19T01:47:06.432Z,81.33
2018-06-19T01:47:46.963Z,81.62
2018-06-19T01:48:27.477Z,81.43
2018-06-19T01:49:07.994Z,81.43
2018-06-19T01:49:48.508Z,81.81
2018-06-19T01:50:29.030Z,81.57
2018-06-19T01:51:09.542Z,81.52
2018-06-19T01:51:50.064Z,81.52
2018-06-19T01:52:30.574Z,81.91
2018-06-19T01:53:11.096Z,82.1
2018-06-19T01:53:51.623Z,82.29
2018-06-19T01:54:32.138Z,81.91
2018-06-19T01:55:12.661Z,82.39
2018-06-19T01:55:53.175Z,82.39
2018-06-19T01:56:33.713Z,82.29
2018-06-19T01:57:14.232Z,82.1
2018-06-19T01:57:54.769Z,82.01
2018-06-19T01:58:35.298Z,81.91
2018-06-19T01:59:15.826Z,82.01
2018-06-19T01:59:56.355Z,81.72
2018-06-19T02:00:36.874Z,82.01
2018-06-19T02:01:17.396Z,82.29
2018-06-19T02:01:57.945Z,82.49
2018-06-19T02:02:38.468Z,83.07
2018-06-19T02:03:18.991Z,82.49
2018-06-19T02:04:00.454Z,83.07
2018-06-19T02:04:40.038Z,82.68
2018-06-19T02:05:20.559Z,82.78
2018-06-19T02:06:01.083Z,82.97
2018-06-19T02:06:41.606Z,82.1
2018-06-19T02:07:22.149Z,82.68
2018-06-19T02:08:02.676Z,82.59
2018-06-19T02:08:43.212Z,82.59
2018-06-19T02:09:23.731Z,82.29
2018-06-19T02:10:04.369Z,82.78
2018-06-19T02:10:44.872Z,82.78
2018-06-19T02:11:25.403Z,82.78
2018-06-19T02:12:05.928Z,82.68
2018-06-19T02:12:46.440Z,82.59
2018-06-19T02:13:26.955Z,82.78
2018-06-19T02:14:07.488Z,82.87
2018-06-19T02:14:48.005Z,82.68
2018-06-19T02:15:28.522Z,82.59
2018-06-19T02:16:09.053Z,82.59
2018-06-19T02:16:49.572Z,82.68
2018-06-19T02:17:30.089Z,82.68
2018-06-19T02:18:10.610Z,82.59
2018-06-19T02:18:51.130Z,82.87
2018-06-19T02:19:31.653Z,82.59
2018-06-19T02:20:12.189Z,83.16
2018-06-19T02:20:52.720Z,83.55
2018-06-19T02:21:33.242Z,83.64
2018-06-19T02:22:13.780Z,83.55
2018-06-19T02:22:54.322Z,83.74
2018-06-19T02:23:34.839Z,83.36
2018-06-19T02:24:15.360Z,82.97
2018-06-19T02:24:55.881Z,82.68
2018-06-19T02:25:36.397Z,82.97
2018-06-19T02:26:16.933Z,83.64
2018-06-19T02:26:57.443Z,84.09
2018-06-19T02:27:37.957Z,84.12
2018-06-19T02:28:18.491Z,83.8
2018-06-19T02:28:59.007Z,83.64
2018-06-19T02:29:39.516Z,83.84
2018-06-19T02:30:20.037Z,83.55
2018-06-19T02:31:00.556Z,83.55
2018-06-19T02:31:41.078Z,84.09
2018-06-19T02:32:21.605Z,84.22
2018-06-19T02:33:02.120Z,83.7
2018-06-19T02:33:42.652Z,83.7
2018-06-19T02:34:23.166Z,84.28
2018-06-19T02:35:03.688Z,84.28
2018-06-19T02:35:44.212Z,84.28
2018-06-19T02:36:24.749Z,83.61
2018-06-19T02:37:05.265Z,83.8
2018-06-19T02:37:45.800Z,84.47
2018-06-19T02:38:26.318Z,84.28
2018-06-19T02:39:06.823Z,85.05
2018-06-19T02:39:47.347Z,84.18
2018-06-19T02:40:27.872Z,84.28
2018-06-19T02:41:08.391Z,84.18
2018-06-19T02:41:48.914Z,84.18
2018-06-19T02:42:29.437Z,84.38
2018-06-19T02:43:09.959Z,84.66
2018-06-19T02:43:50.475Z,84.56
2018-06-19T02:44:31.004Z,84.86
2018-06-19T02:45:11.517Z,84.86
2018-06-19T02:45:52.026Z,84.76
2018-06-19T02:46:32.550Z,84.47
2018-06-19T02:47:13.074Z,84.18
2018-06-19T02:47:53.600Z,83.7
2018-06-19T02:48:34.192Z,84.56
2018-06-19T02:49:14.645Z,83.8
2018-06-19T02:49:55.161Z,84.56
2018-06-19T02:50:35.686Z,84.38
2018-06-19T02:51:16.196Z,84.38
2018-06-19T02:51:56.718Z,84.47
2018-06-19T02:52:37.247Z,84.47
2018-06-19T02:53:17.773Z,84.56
2018-06-19T02:53:58.290Z,84.86
2018-06-19T02:54:38.811Z,84.28
2018-06-19T02:55:19.338Z,84.47
2018-06-19T02:55:59.910Z,84.28
2018-06-19T02:56:40.437Z,84.66
2018-06-19T02:57:20.936Z,84.61
2018-06-19T02:58:01.458Z,84.09
2018-06-19T02:58:41.980Z,84.18
2018-06-19T02:59:22.500Z,83.89
2018-06-19T03:00:03.028Z,84.56
2018-06-19T03:00:43.554Z,84.28
2018-06-19T03:01:24.081Z,84.66
2018-06-19T03:02:04.598Z,84.28
2018-06-19T03:02:45.130Z,84.47
2018-06-19T03:03:25.647Z,84.66
2018-06-19T03:04:06.178Z,84.52
2018-06-19T03:04:46.688Z,84.42
2018-06-19T03:05:27.208Z,85.05
2018-06-19T03:06:07.739Z,84.52
2018-06-19T03:06:48.267Z,84.56
2018-06-19T03:07:28.785Z,84.86
2018-06-19T03:08:09.301Z,84.95
2018-06-19T03:08:49.836Z,84.32
2018-06-19T03:09:30.353Z,84.09
2018-06-19T03:10:10.921Z,84.38
2018-06-19T03:10:51.438Z,84.66
2018-06-19T03:11:31.951Z,84.56
2018-06-19T03:12:12.471Z,84.52
2018-06-19T03:12:53.000Z,84.56
2018-06-19T03:13:33.539Z,84.76
2018-06-19T03:14:14.083Z,84.76
2018-06-19T03:14:54.590Z,84.66
2018-06-19T03:15:35.130Z,84.66
2018-06-19T03:16:15.649Z,84.38
2018-06-19T03:16:56.170Z,84.56
2018-06-19T03:17:36.687Z,84.7
2018-06-19T03:19:54.669Z,84.52
2018-06-19T03:20:35.186Z,85.05
2018-06-19T03:21:15.698Z,84.86
2018-06-19T03:21:56.219Z,84.47
2018-06-19T03:22:36.746Z,84.56
2018-06-19T03:23:17.264Z,85.05
2018-06-19T03:23:57.775Z,84.38
2018-06-19T03:24:38.295Z,84.86
2018-06-19T03:25:18.832Z,84.47
2018-06-19T03:25:59.352Z,85.05
2018-06-19T03:26:39.872Z,84.95
2018-06-19T03:27:20.390Z,84.66
2018-06-19T03:28:00.915Z,84.86
2018-06-19T03:28:41.451Z,84.47
2018-06-19T03:29:21.969Z,84.61
2018-06-19T03:30:02.483Z,84.56
2018-06-19T03:30:42.999Z,84.86
2018-06-19T03:31:23.517Z,84.76
2018-06-19T03:32:04.038Z,84.76
2018-06-19T03:32:44.595Z,84.56
2018-06-19T03:33:25.111Z,84.18
2018-06-19T03:34:05.649Z,84.86
2018-06-19T03:34:46.181Z,84.8
2018-06-19T03:35:26.711Z,84.22
2018-06-19T03:36:07.224Z,84.52
2018-06-19T03:36:47.744Z,84.42
2018-06-19T03:37:28.290Z,84.42
2018-06-19T03:38:08.811Z,84.99
2018-06-19T03:38:49.320Z,84.99
2018-06-19T03:39:29.858Z,84.76
2018-06-19T03:40:10.370Z,84.22
2018-06-19T03:40:50.885Z,84.09
2018-06-19T03:41:31.406Z,84.22
2018-06-19T03:42:11.928Z,84.52
2018-06-19T03:42:52.460Z,84.52
2018-06-19T03:43:32.976Z,84.32
2018-06-19T03:44:13.505Z,85.09
2018-06-19T03:44:54.017Z,84.42
2018-06-19T03:45:34.540Z,83.94
2018-06-19T03:46:15.073Z,84.22
2018-06-19T03:46:55.590Z,83.94
2018-06-19T03:47:36.109Z,84.8
2018-06-19T03:48:16.634Z,84.22
2018-06-19T03:48:57.172Z,84.22
2018-06-19T03:49:37.667Z,83.74
2018-06-19T03:50:18.185Z,83.16
2018-06-19T03:50:58.704Z,83.55
2018-06-19T03:51:39.209Z,84.27
2018-06-19T03:52:19.778Z,83.98
2018-06-19T03:53:00.285Z,83.36
2018-06-19T03:53:40.820Z,83.98
2018-06-19T03:54:21.331Z,83.26
2018-06-19T03:55:01.846Z,83.07
2018-06-19T03:55:42.367Z,82.97
2018-06-19T03:56:22.883Z,82.97
2018-06-19T03:57:03.395Z,83.69
2018-06-19T03:57:43.947Z,84.07
2018-06-19T03:58:24.463Z,83.74
2018-06-19T03:59:04.971Z,83.59
2018-06-19T03:59:45.497Z,83.01
2018-06-19T04:00:26.004Z,82.87
2018-06-19T04:01:06.525Z,83.55
2018-06-19T04:01:47.049Z,83.11
2018-06-19T04:02:27.588Z,83.4
2018-06-19T04:03:08.138Z,82.87
2018-06-19T04:03:48.657Z,83.74
2018-06-19T04:04:29.172Z,83.55
2018-06-19T04:05:09.679Z,83.78
2018-06-19T04:05:50.198Z,83.5
2018-06-19T04:06:30.723Z,82.53
2018-06-19T04:07:11.249Z,82.72
2018-06-19T04:07:51.797Z,82.72
2018-06-19T04:08:32.317Z,82.53
2018-06-19T04:09:12.860Z,82.09
2018-06-19T04:09:53.373Z,81.95
2018-06-19T04:10:33.944Z,82.53
2018-06-19T04:11:14.409Z,82.53
2018-06-19T04:11:54.924Z,82.92
2018-06-19T04:12:35.463Z,82.92
2018-06-19T04:13:15.967Z,82.72
2018-06-19T04:13:56.482Z,82.92
2018-06-19T04:14:37.006Z,83.4
2018-06-19T04:15:17.516Z,82.62
2018-06-19T04:15:58.037Z,82.62
2018-06-19T04:16:38.555Z,82.82
2018-06-19T04:17:19.070Z,82.72
2018-06-19T04:17:59.585Z,82.72
2018-06-19T04:18:40.101Z,82.62
2018-06-19T04:19:20.609Z,82.82
2018-06-19T04:20:01.122Z,82.72
2018-06-19T04:20:41.640Z,82.72
2018-06-19T04:21:22.172Z,82.34
2018-06-19T04:22:02.698Z,82.62
2018-06-19T04:22:43.214Z,82.53
2018-06-19T04:23:23.755Z,82.53
2018-06-19T04:24:04.274Z,82.92
2018-06-19T04:24:44.805Z,82.72
2018-06-19T04:25:25.328Z,82.53
2018-06-19T04:26:05.851Z,82.62
2018-06-19T04:26:46.367Z,82.72
2018-06-19T04:27:26.932Z,82.34
2018-06-19T04:28:07.447Z,81.95
2018-06-19T04:28:47.976Z,81.95
2018-06-19T04:29:28.500Z,82.09
2018-06-19T04:30:09.022Z,82.53
2018-06-19T04:30:49.546Z,81.9
2018-06-19T04:31:30.060Z,81.9
2018-06-19T04:32:10.581Z,82.18
2018-06-19T04:32:51.107Z,82.76
2018-06-19T04:33:31.637Z,82.09
2018-06-19T04:34:12.158Z,81.6
2018-06-19T04:34:52.676Z,81.32
2018-06-19T04:35:33.197Z,81.51
2018-06-19T04:36:13.709Z,81.99
2018-06-19T04:36:54.225Z,81.9
2018-06-19T04:37:34.750Z,81.99
2018-06-19T04:38:15.269Z,81.6
2018-06-19T04:38:55.794Z,82.18
2018-06-19T04:39:36.315Z,82.09
2018-06-19T04:40:16.838Z,81.99
2018-06-19T04:40:57.366Z,82.09
2018-06-19T04:41:37.889Z,81.35
2018-06-19T04:42:18.414Z,81.26
2018-06-19T04:42:58.933Z,80.68
2018-06-19T04:43:39.471Z,80.78
2018-06-19T04:44:20.000Z,81.26
2018-06-19T04:45:00.525Z,80.39
2018-06-19T04:45:41.065Z,80.87
2018-06-19T04:46:21.583Z,81.16
2018-06-19T04:47:02.135Z,80.58
2018-06-19T04:47:42.679Z,79.91
2018-06-19T04:48:23.193Z,80.49
2018-06-19T04:49:03.712Z,80.87
2018-06-19T04:49:44.251Z,81.16
2018-06-19T04:50:24.756Z,81.16
2018-06-19T04:51:05.280Z,81.55
2018-06-19T04:51:45.802Z,81.35
2018-06-19T04:52:26.342Z,81.35
2018-06-19T04:53:06.843Z,81.45
2018-06-19T04:53:47.372Z,81.16
2018-06-19T04:54:27.882Z,81.26
2018-06-19T04:55:08.444Z,81.84
2018-06-19T04:55:48.964Z,81.55
2018-06-19T04:56:29.582Z,81.07
2018-06-19T04:57:10.104Z,81.16
2018-06-19T04:57:50.628Z,81.35
2018-06-19T04:58:31.145Z,81.26
2018-06-19T04:59:11.665Z,81.16
2018-06-19T04:59:52.189Z,81.16
2018-06-19T05:00:32.726Z,81.41
2018-06-19T05:01:13.246Z,81.45
2018-06-19T05:01:53.766Z,81.84
2018-06-19T05:02:34.294Z,81.16
2018-06-19T05:03:14.816Z,81.35
2018-06-19T05:03:55.415Z,81.55
2018-06-19T05:04:35.848Z,81.26
2018-06-19T05:05:16.360Z,80.87
2018-06-19T05:05:56.899Z,81.16
2018-06-19T05:06:37.405Z,80.97
2018-06-19T05:07:18.032Z,81.16
2018-06-19T05:07:58.550Z,81.16
2018-06-19T05:08:39.061Z,81.16
2018-06-19T05:09:19.578Z,80.58
2018-06-19T05:10:00.110Z,80.78
2018-06-19T05:10:40.632Z,80.78
2018-06-19T05:11:21.184Z,80.68
2018-06-19T05:12:01.699Z,80.58
2018-06-19T05:12:42.226Z,80.68
2018-06-19T05:13:22.762Z,80.97
2018-06-19T05:14:03.313Z,80.49
2018-06-19T05:14:43.837Z,80.39
2018-06-19T05:15:24.349Z,80.39
2018-06-19T05:16:04.894Z,80.24
2018-06-19T05:16:45.426Z,80.91
2018-06-19T05:17:25.957Z,80.05
2018-06-19T05:18:06.468Z,79.95
2018-06-19T05:18:46.990Z,79.95
2018-06-19T05:19:27.545Z,79.75
2018-06-19T05:20:08.075Z,79.85
2018-06-19T05:20:48.599Z,80.53
2018-06-19T05:21:29.134Z,80.43
2018-06-19T05:23:26.797Z,80.91
2018-06-19T05:24:07.313Z,80.72
2018-06-19T05:24:47.837Z,83.62
2018-06-19T05:25:28.360Z,84.78
2018-06-19T05:26:08.876Z,85.55
2018-06-19T05:26:49.395Z,83.91
2018-06-19T05:27:29.905Z,80.76
2018-06-19T05:28:10.431Z,83.12
2018-06-19T05:28:50.950Z,84.57
2018-06-19T05:29:31.468Z,87.52
2018-06-19T05:30:11.980Z,86.07
2018-06-19T05:30:52.524Z,87.71
2018-06-19T05:31:33.050Z,88.68
2018-06-19T05:32:13.564Z,88.87
2018-06-19T05:32:54.091Z,88.1
2018-06-19T05:33:34.624Z,87.43
2018-06-19T05:34:15.162Z,84.43
2018-06-19T05:34:55.721Z,88.59
2018-06-19T05:35:36.227Z,86.75
2018-06-19T05:36:16.742Z,82.89
2018-06-19T05:36:57.257Z,84.33
2018-06-19T05:37:37.763Z,87.71
2018-06-19T05:38:18.285Z,90.03
2018-06-19T05:38:58.902Z,89.84
2018-06-19T05:39:39.424Z,83.95
2018-06-19T05:40:19.992Z,82.79
2018-06-19T05:41:00.484Z,83.18
2018-06-19T05:41:41.004Z,86.75
2018-06-19T05:42:21.520Z,87.08
2018-06-19T05:43:02.041Z,86.79
2018-06-19T05:43:42.566Z,84.28
2018-06-19T05:44:23.081Z,84.19
2018-06-19T05:45:03.609Z,86.31
2018-06-19T05:45:44.127Z,86.6
2018-06-19T05:46:24.741Z,87.85
2018-06-19T05:47:05.168Z,88.43
2018-06-19T05:47:45.709Z,86.65
2018-06-19T05:48:26.229Z,84.77
2018-06-19T05:49:06.751Z,84.52
2018-06-19T05:49:47.272Z,83.55
2018-06-19T05:50:27.795Z,83.16
2018-06-19T05:51:08.301Z,83.94
2018-06-19T05:51:48.825Z,83.36
2018-06-19T05:52:29.376Z,83.84
2018-06-19T05:53:09.883Z,85.58
2018-06-19T05:53:50.456Z,84.71
2018-06-19T05:54:30.983Z,82.68
2018-06-19T05:55:11.494Z,82.58
2018-06-19T05:55:52.019Z,79.2
2018-06-19T05:56:32.550Z,82.68
2018-06-19T05:57:13.095Z,82.33
2018-06-19T05:57:53.625Z,82.62
2018-06-19T05:58:34.252Z,83.3
2018-06-19T05:59:14.864Z,83.59
2018-06-19T05:59:55.389Z,83.94
2018-06-19T06:00:35.930Z,84.8
2018-06-19T06:01:16.448Z,85.39
2018-06-19T06:01:56.982Z,84.9
2018-06-19T06:02:37.510Z,84.52
2018-06-19T06:03:18.083Z,82.97
2018-06-19T06:03:58.606Z,79.97
2018-06-19T06:04:39.153Z,82.1
2018-06-19T06:05:19.654Z,83.26
2018-06-19T06:06:00.164Z,83.99
2018-06-19T06:06:40.707Z,84.52
2018-06-19T06:07:21.234Z,87.23
2018-06-19T06:08:01.823Z,87.76
2018-06-19T06:08:42.330Z,87.71
2018-06-19T06:09:22.858Z,89.15
2018-06-19T06:10:03.384Z,91.19
2018-06-19T06:10:44.137Z,88.39
2018-06-19T06:11:24.653Z,88.09
2018-06-19T06:12:05.188Z,90.26
2018-06-19T06:12:45.711Z,87.23
2018-06-19T06:13:26.237Z,84.61
2018-06-19T06:14:06.769Z,87.75
2018-06-19T06:14:47.288Z,89.39
2018-06-19T06:15:27.854Z,90.07
2018-06-19T06:16:08.351Z,90.36
2018-06-19T06:16:48.894Z,88.53
2018-06-19T06:17:29.428Z,91.14
2018-06-19T06:18:09.941Z,89.78
2018-06-19T06:18:50.618Z,91.42
2018-06-19T06:19:31.136Z,90.36
2018-06-19T06:20:11.669Z,88.37
2018-06-19T06:20:52.192Z,91.38
2018-06-19T06:21:32.703Z,91.47
2018-06-19T06:22:13.219Z,87.16
2018-06-19T06:22:53.740Z,89.58
2018-06-19T06:23:34.283Z,91.71
2018-06-19T06:24:14.799Z,91.13
2018-06-19T06:24:55.340Z,90.2
2018-06-19T06:25:35.864Z,89.43
2018-06-19T06:26:16.387Z,90.25
2018-06-19T06:26:56.985Z,89.28
2018-06-19T06:27:37.487Z,89.03
2018-06-19T06:28:18.082Z,89.23
2018-06-19T06:28:58.568Z,88.74
2018-06-19T06:29:39.083Z,89.42
2018-06-19T06:30:19.618Z,88.74
2018-06-19T06:31:00.134Z,86.71
2018-06-19T06:31:40.661Z,78.75
2018-06-19T06:32:21.190Z,77.92
2018-06-19T06:33:01.747Z,81.99
2018-06-19T06:33:42.250Z,83.84
2018-06-19T06:34:22.787Z,76.27
2018-06-19T06:35:03.337Z,82.67
2018-06-19T06:35:43.874Z,81.9
2018-06-19T06:36:24.419Z,76.23
2018-06-19T06:37:04.993Z,74.29
2018-06-19T06:37:45.495Z,80.3
2018-06-19T06:38:26.013Z,80.25
2018-06-19T06:39:06.535Z,79.76
2018-06-19T06:39:47.107Z,81.18
2018-06-19T06:40:27.636Z,81.76
2018-06-19T06:41:08.188Z,81.37
2018-06-19T06:41:48.726Z,82.92
2018-06-19T06:42:29.280Z,83.31
2018-06-19T06:43:09.834Z,79.82
2018-06-19T06:43:50.352Z,80.4
2018-06-19T06:44:30.868Z,79.3
2018-06-19T06:45:11.403Z,79.1
2018-06-19T06:45:51.962Z,79.88
2018-06-19T06:46:32.480Z,79.72
2018-06-19T06:47:13.024Z,81.47
2018-06-19T06:47:53.550Z,82.44
2018-06-19T06:48:34.074Z,78.56
2018-06-19T06:49:14.597Z,79.14
2018-06-19T06:49:55.181Z,81.76
2018-06-19T06:50:35.757Z,82.92
2018-06-19T06:51:16.249Z,84.52
2018-06-19T06:51:56.830Z,84.28
2018-06-19T06:52:37.360Z,83.99
2018-06-19T06:53:17.879Z,83.06
2018-06-19T06:53:58.404Z,83.15
2018-06-19T06:54:38.922Z,81.51
2018-06-19T06:55:19.447Z,82.38
2018-06-19T06:55:59.970Z,75.78
2018-06-19T06:56:40.614Z,77.53
2018-06-19T06:57:21.159Z,76.27
2018-06-19T06:58:01.725Z,75.07
2018-06-19T06:58:42.253Z,78.11
2018-06-19T06:59:22.814Z,75.26
2018-06-19T07:00:03.339Z,80.34
2018-06-19T07:00:43.864Z,81.7
2018-06-19T07:01:24.403Z,80.4
2018-06-19T07:02:04.925Z,81.47
2018-06-19T07:02:45.476Z,79.96
2018-06-19T07:03:26.020Z,81.99
2018-06-19T07:04:06.731Z,82.48
2018-06-19T07:04:47.364Z,83.74
2018-06-19T07:05:27.911Z,85.29
2018-06-19T07:06:08.436Z,84.91
2018-06-19T07:06:48.961Z,81.6
2018-06-19T07:07:29.473Z,81.8
2018-06-19T07:08:10.003Z,83.35
2018-06-19T07:08:50.537Z,80.29
2018-06-19T07:09:31.957Z,82.23
2018-06-19T07:10:11.832Z,83.69
2018-06-19T07:10:52.248Z,80.29
2018-06-19T07:11:32.802Z,80.09
2018-06-19T07:12:13.322Z,83.97
2018-06-19T07:12:53.839Z,87.18
2018-06-19T07:13:34.423Z,80.68
2018-06-19T07:14:14.879Z,78.19
2018-06-19T07:14:55.410Z,82.75
2018-06-19T07:15:36.023Z,83.59
2018-06-19T07:16:16.629Z,79.06
2018-06-19T07:16:57.162Z,77.12
2018-06-19T07:17:37.697Z,74.6
2018-06-19T07:18:18.241Z,80.77
2018-06-19T07:18:58.800Z,84.6
2018-06-19T07:19:39.301Z,83.53
2018-06-19T07:20:19.832Z,84.21
2018-06-19T07:21:00.397Z,81.98
2018-06-19T07:21:40.989Z,83.53
2018-06-19T07:22:21.547Z,81.3
2018-06-19T07:23:02.078Z,81.2
2018-06-19T07:23:42.570Z,81.59
2018-06-19T07:24:23.089Z,81.39
2018-06-19T07:25:03.622Z,79.84
2018-06-19T07:25:44.154Z,74.85
2018-06-19T07:26:24.670Z,76.69
2018-06-19T07:27:05.221Z,78.09
2018-06-19T07:27:45.737Z,79.84
2018-06-19T07:28:26.260Z,73.82
2018-06-19T07:29:06.784Z,74.5
2018-06-19T07:29:47.309Z,79.25
2018-06-19T07:30:27.835Z,77.7
2018-06-19T07:31:08.355Z,79.25
2018-06-19T07:31:48.900Z,76.05
2018-06-19T07:32:29.408Z,75.95
2018-06-19T07:33:09.918Z,79.25
2018-06-19T07:33:50.437Z,81.49
2018-06-19T07:34:30.950Z,81.88
2018-06-19T07:35:11.492Z,83.14
2018-06-19T07:35:52.076Z,84.35
2018-06-19T07:36:32.593Z,82.79
2018-06-19T07:37:13.110Z,75.41
2018-06-19T07:37:53.702Z,71.62
2018-06-19T07:38:34.178Z,73.85
2018-06-19T07:39:14.688Z,75.41
2018-06-19T07:39:55.250Z,75.99
2018-06-19T07:40:35.780Z,74.05
2018-06-19T07:41:16.332Z,74.05
2018-06-19T07:41:56.857Z,76.38
2018-06-19T07:42:37.392Z,75.8
2018-06-19T07:43:17.929Z,83.28
2018-06-19T07:43:58.485Z,85.13
2018-06-19T07:44:38.962Z,80.42
2018-06-19T07:45:19.525Z,82.65
2018-06-19T07:46:00.034Z,82.89
2018-06-19T07:46:40.575Z,83.37
2018-06-19T07:47:21.115Z,81.76
2018-06-19T07:48:01.641Z,80.99
2018-06-19T07:48:42.229Z,74.96
2018-06-19T07:49:22.772Z,75.93
2018-06-19T07:50:03.338Z,78.85
2018-06-19T07:50:43.870Z,80.85
2018-06-19T07:51:24.387Z,75.89
2018-06-19T07:52:04.911Z,79.68
2018-06-19T07:52:45.421Z,74.6
2018-06-19T07:53:25.968Z,76.15
2018-06-19T07:54:06.478Z,78.87
2018-06-19T07:54:46.988Z,79.06
2018-06-19T07:55:27.563Z,78.83
2018-06-19T07:56:08.059Z,77.86
2018-06-19T07:56:48.579Z,78.28
2018-06-19T07:57:29.107Z,76.15
2018-06-19T07:58:09.664Z,79.06
2018-06-19T07:58:50.200Z,79.32
2018-06-19T07:59:30.723Z,79.84
2018-06-19T08:00:11.243Z,79.25
2018-06-19T08:00:51.755Z,80.42
2018-06-19T08:01:32.271Z,76.6
2018-06-19T08:02:13.486Z,74.75
2018-06-19T08:02:53.375Z,76.31
2018-06-19T08:03:33.897Z,76.21
2018-06-19T08:04:14.493Z,78.15
2018-06-19T08:04:55.017Z,79.74
2018-06-19T08:05:35.535Z,83.14
2018-06-19T08:06:16.091Z,83.14
2018-06-19T08:06:56.648Z,82.85
2018-06-19T08:07:37.173Z,80.71
2018-06-19T08:08:18.587Z,80.66
2018-06-19T08:08:59.100Z,79.84
2018-06-19T08:09:39.622Z,81.78
2018-06-19T08:10:20.148Z,81.59
2018-06-19T08:11:00.676Z,79.97
2018-06-19T08:11:41.200Z,79.3
2018-06-19T08:12:21.740Z,79.2
2018-06-19T08:13:02.258Z,78.13
2018-06-19T08:13:42.781Z,78.19
2018-06-19T08:14:23.340Z,74.98
2018-06-19T08:15:03.861Z,75.85
2018-06-19T08:15:44.382Z,76.98
2018-06-19T08:16:24.905Z,76.11
2018-06-19T08:17:05.467Z,76.98
2018-06-19T08:17:45.993Z,77.04
2018-06-19T08:18:26.564Z,75.88
2018-06-19T08:19:07.111Z,77.14
2018-06-19T08:19:47.635Z,77.04
2018-06-19T08:20:28.147Z,73.65
2018-06-19T08:21:08.681Z,75.92
2018-06-19T08:21:49.209Z,76.79
2018-06-19T08:22:29.750Z,74.65
2018-06-19T08:23:10.258Z,73.68
2018-06-19T08:23:50.789Z,74.75
2018-06-19T08:24:31.314Z,73.68
2018-06-19T08:25:11.855Z,74.56
2018-06-19T08:25:52.371Z,75.3
2018-06-19T08:26:32.888Z,75.88
2018-06-19T08:27:13.412Z,74.71
2018-06-19T08:27:53.941Z,72.61
2018-06-19T08:28:34.483Z,73.88
2018-06-19T08:29:15.006Z,78.4
2018-06-19T08:29:55.538Z,75.72
2018-06-19T08:30:36.059Z,78.83
2018-06-19T08:31:16.612Z,80.87
2018-06-19T08:31:57.131Z,81.55
2018-06-19T08:32:37.651Z,81.16
2018-06-19T08:33:18.174Z,79.22
2018-06-19T08:33:58.703Z,78.73
2018-06-19T08:34:39.215Z,77.86
2018-06-19T08:35:19.736Z,83.1
2018-06-19T08:36:00.285Z,80.77
2018-06-19T08:36:40.828Z,82.62
2018-06-19T08:37:21.357Z,80.68
2018-06-19T08:38:01.879Z,77.28
2018-06-19T08:38:42.401Z,79.22
2018-06-19T08:39:22.921Z,74.56
2018-06-19T08:40:03.448Z,80.13
2018-06-19T08:40:43.978Z,79.74
2018-06-19T08:41:24.513Z,78.15
2018-06-19T08:42:05.028Z,78.09
2018-06-19T08:42:45.600Z,75.95
2018-06-19T08:43:26.115Z,76.05
2018-06-19T08:44:06.649Z,77.31
2018-06-19T08:44:47.201Z,74.79
2018-06-19T08:45:27.729Z,75.67
2018-06-19T08:46:08.247Z,77.08
2018-06-19T08:46:48.771Z,77.37
2018-06-19T08:47:29.310Z,75.72